Time;durP1;ratioP1;P1;durP2;ratioP2;P2;SDS_P1;SDS_P2;PMS_P1;PMS_P2;Temp;Humidity;BMP_temperature;BMP_pressure;BME280_temperature;BME280_humidity;BME280_pressure;Samples;Min_cycle;Max_cycle;Signal;HPM_P1;HPM_P2
2021/10/15 00:00:09;;;;;;;3.63;3.33;;;;;;;12.14;100.00;100783.09;5076097;28;20184;-72
2021/10/15 00:02:34;;;;;;;5.37;4.87;;;;;;;12.13;100.00;100781.47;5075950;28;20174;-72
2021/10/15 00:05:00;;;;;;;4.77;4.20;;;;;;;12.15;100.00;100784.69;5075835;28;20181;-72
2021/10/15 00:07:25;;;;;;;4.67;4.13;;;;;;;12.14;100.00;100774.88;5075892;28;20277;-72
2021/10/15 00:09:50;;;;;;;3.30;3.00;;;;;;;12.12;100.00;100774.38;5094011;28;20294;-72
2021/10/15 00:12:16;;;;;;;9.80;5.53;;;;;;;12.10;100.00;100773.88;5075847;28;20193;-72
2021/10/15 00:14:42;;;;;;;5.27;4.87;;;;;;;12.09;100.00;100762.13;5094073;28;20611;-71
2021/10/15 00:17:08;;;;;;;4.23;3.73;;;;;;;12.11;100.00;100759.88;5075854;28;20235;-72
2021/10/15 00:19:33;;;;;;;4.33;3.93;;;;;;;12.10;100.00;100760.19;5094034;28;20710;-72
2021/10/15 00:21:59;;;;;;;3.53;3.23;;;;;;;12.10;100.00;100743.75;5075618;28;20302;-71
2021/10/15 00:24:24;;;;;;;4.13;3.73;;;;;;;12.06;100.00;100746.31;5075526;28;20542;-72
2021/10/15 00:26:49;;;;;;;3.13;2.83;;;;;;;12.05;100.00;100732.94;5075660;28;20181;-71
2021/10/15 00:29:15;;;;;;;8.03;3.80;;;;;;;12.04;100.00;100729.41;5093722;28;20181;-71
2021/10/15 00:31:40;;;;;;;3.00;2.70;;;;;;;12.04;100.00;100732.13;5093550;28;20532;-72
2021/10/15 00:34:05;;;;;;;1.93;1.57;;;;;;;12.04;100.00;100726.66;5093631;28;20643;-71
2021/10/15 00:36:31;;;;;;;3.77;3.47;;;;;;;12.02;100.00;100723.44;5075160;28;20629;-71
2021/10/15 00:38:56;;;;;;;3.53;3.23;;;;;;;12.02;100.00;100711.66;5093391;28;20514;-71
2021/10/15 00:41:22;;;;;;;5.77;3.07;;;;;;;12.02;100.00;100708.94;5075160;28;20576;-71
2021/10/15 00:44:04;;;;;;;4.07;3.67;;;;;;;12.02;100.00;100701.53;5074488;28;20197;-72
2021/10/15 00:46:30;;;;;;;4.20;3.73;;;;;;;12.03;100.00;100685.91;5093408;28;20177;-72
2021/10/15 00:48:55;;;;;;;3.90;3.60;;;;;;;12.01;100.00;100683.47;5074801;28;20178;-72
2021/10/15 00:51:21;;;;;;;4.50;4.10;;;;;;;12.02;100.00;100684.28;5074824;28;20513;-72
2021/10/15 00:53:47;;;;;;;1.67;1.47;;;;;;;12.03;100.00;100685.91;5092654;28;20492;-72
2021/10/15 00:56:13;;;;;;;4.07;3.63;;;;;;;12.06;100.00;100674.31;5074724;28;20269;-72
2021/10/15 00:58:39;;;;;;;3.47;3.10;;;;;;;12.08;100.00;100667.38;5092908;28;20590;-72
2021/10/15 01:01:04;;;;;;;3.40;3.10;;;;;;;12.06;100.00;100672.38;5092823;28;20644;-72
2021/10/15 01:03:29;;;;;;;1.23;1.17;;;;;;;12.06;100.00;100652.41;5074414;28;20188;-72
2021/10/15 01:05:55;;;;;;;2.67;2.17;;;;;;;12.05;100.00;100659.00;5073247;28;20193;-72
2021/10/15 01:08:20;;;;;;;1.47;1.27;;;;;;;12.03;100.00;100651.09;5074630;28;20496;-72
2021/10/15 01:10:46;;;;;;;1.73;1.63;;;;;;;12.03;100.00;100645.63;5074373;28;20177;-72
2021/10/15 01:13:11;;;;;;;4.60;1.73;;;;;;;12.03;100.00;100639.34;5092623;28;20170;-72
2021/10/15 01:15:37;;;;;;;4.23;3.13;;;;;;;12.04;100.00;100646.44;5092338;28;20542;-72
2021/10/15 01:18:07;;;;;;;2.13;1.93;;;;;;;12.04;100.00;100643.69;5092507;28;20178;-72
2021/10/15 01:20:32;;;;;;;1.90;1.73;;;;;;;12.03;100.00;100644.81;5092979;28;20276;-71
2021/10/15 01:22:58;;;;;;;2.30;0.73;;;;;;;12.03;100.00;100634.69;5073877;28;20709;-71
2021/10/15 01:25:26;;;;;;;6.83;1.30;;;;;;;12.06;100.00;100627.75;5092308;28;20196;-71
2021/10/15 01:27:51;;;;;;;1.30;1.20;;;;;;;12.03;100.00;100618.25;5091827;28;20655;-72
2021/10/15 01:30:17;;;;;;;1.47;1.07;;;;;;;12.03;100.00;100625.66;5073672;28;20252;-72
2021/10/15 01:32:42;;;;;;;2.17;1.97;;;;;;;12.02;100.00;100627.59;5091812;28;20249;-72
2021/10/15 01:35:08;;;;;;;1.20;1.20;;;;;;;12.04;100.00;100619.84;5073372;28;20178;-71
2021/10/15 01:37:34;;;;;;;1.37;1.20;;;;;;;12.04;100.00;100630.81;5073558;28;20182;-71
2021/10/15 01:39:59;;;;;;;0.57;0.57;;;;;;;12.03;100.00;100618.25;5073261;28;20184;-71
2021/10/15 01:45:08;;;;;;;1.13;1.03;;;;;;;12.01;100.00;100623.22;5091841;28;20200;-71
2021/10/15 01:47:34;;;;;;;1.60;1.50;;;;;;;12.00;100.00;100609.84;5091808;28;20169;-72
2021/10/15 01:49:59;;;;;;;1.37;1.27;;;;;;;12.03;100.00;100617.44;5073496;28;20877;-71
2021/10/15 01:52:24;;;;;;;2.30;2.20;;;;;;;12.01;100.00;100606.00;5091621;28;20202;-71
2021/10/15 01:54:50;;;;;;;0.50;0.50;;;;;;;12.00;100.00;100602.44;5073406;28;20179;-71
2021/10/15 01:57:15;;;;;;;1.57;1.47;;;;;;;11.96;100.00;100600.66;5091573;28;20177;-71
2021/10/15 01:59:40;;;;;;;0.63;0.63;;;;;;;11.93;100.00;100579.38;5091943;28;20180;-71
2021/10/15 02:02:06;;;;;;;0.77;0.77;;;;;;;11.97;100.00;100585.84;5073363;28;20209;-72
2021/10/15 02:04:31;;;;;;;1.40;1.30;;;;;;;11.97;100.00;100594.03;5073174;28;20459;-71
2021/10/15 02:06:56;;;;;;;2.63;2.23;;;;;;;11.99;100.00;100572.63;5091883;28;20189;-72
2021/10/15 02:09:21;;;;;;;2.63;1.17;;;;;;;11.99;100.00;100587.13;5073418;28;20207;-71
2021/10/15 02:11:47;;;;;;;0.70;0.70;;;;;;;11.97;100.00;100575.69;5073250;28;20177;-71
2021/10/15 02:14:12;;;;;;;0.83;0.83;;;;;;;11.95;100.00;100580.69;5072962;28;20200;-71
2021/10/15 02:16:37;;;;;;;4.63;1.40;;;;;;;11.95;100.00;100591.63;5091137;28;20535;-72
2021/10/15 02:19:03;;;;;;;1.37;1.27;;;;;;;11.94;100.00;100575.53;5091165;28;20579;-72
2021/10/15 02:21:28;;;;;;;1.20;1.10;;;;;;;11.94;100.00;100573.59;5073023;28;20240;-71
2021/10/15 02:23:54;;;;;;;1.93;1.47;;;;;;;11.93;100.00;100574.72;5072860;28;20184;-71
2021/10/15 02:26:20;;;;;;;0.90;0.77;;;;;;;11.92;100.00;100570.38;5091203;28;20174;-71
2021/10/15 02:28:46;;;;;;;0.77;0.77;;;;;;;11.92;100.00;100567.63;5091211;28;20621;-72
2021/10/15 02:31:11;;;;;;;5.60;1.70;;;;;;;11.91;100.00;100557.81;5091163;28;20166;-71
2021/10/15 02:33:37;;;;;;;2.83;1.30;;;;;;;11.92;100.00;100567.63;5091029;28;20244;-71
2021/10/15 02:36:02;;;;;;;0.80;0.80;;;;;;;11.91;100.00;100566.00;5091048;28;20169;-71
2021/10/15 02:38:28;;;;;;;0.73;0.50;;;;;;;11.90;100.00;100559.72;5072770;28;20604;-72
2021/10/15 02:40:53;;;;;;;1.07;1.07;;;;;;;11.91;100.00;100555.06;5072420;28;20204;-72
2021/10/15 02:43:18;;;;;;;1.80;1.70;;;;;;;11.89;100.00;100551.84;5090516;28;20165;-71
2021/10/15 02:45:44;;;;;;;0.80;0.80;;;;;;;11.90;100.00;100558.94;5090730;28;20311;-71
2021/10/15 02:48:09;;;;;;;1.60;1.50;;;;;;;11.89;100.00;100543.63;5072894;28;20656;-72
2021/10/15 02:50:35;;;;;;;1.43;1.33;;;;;;;11.88;100.00;100539.28;5090954;28;20231;-72
2021/10/15 02:53:00;;;;;;;2.67;1.33;;;;;;;11.90;100.00;100543.31;5090732;28;20239;-71
2021/10/15 02:55:26;;;;;;;1.23;1.07;;;;;;;11.87;100.00;100535.72;5072511;28;20173;-72
2021/10/15 02:57:51;;;;;;;1.93;0.50;;;;;;;11.89;100.00;100536.22;5072225;28;20398;-71
2021/10/15 03:00:17;;;;;;;1.93;1.83;;;;;;;11.89;100.00;100528.00;5090638;28;20260;-72
2021/10/15 03:02:42;;;;;;;1.00;0.90;;;;;;;11.89;100.00;100532.69;5072596;28;20268;-71
2021/10/15 03:05:08;;;;;;;1.40;1.30;;;;;;;11.88;100.00;100528.31;5072211;28;20537;-71
2021/10/15 03:07:34;;;;;;;1.57;1.47;;;;;;;11.87;100.00;100538.47;5072381;28;20178;-71
2021/10/15 03:10:00;;;;;;;1.53;1.43;;;;;;;11.85;100.00;100526.19;5070363;28;20181;-71
2021/10/15 03:12:26;;;;;;;7.63;2.43;;;;;;;11.84;100.00;100517.19;5090808;28;20182;-71
2021/10/15 03:14:51;;;;;;;1.10;1.00;;;;;;;11.83;100.00;100518.31;5072487;28;20170;-71
2021/10/15 03:17:16;;;;;;;0.90;0.90;;;;;;;11.79;100.00;100520.06;5072793;28;20173;-71
2021/10/15 03:19:42;;;;;;;0.97;0.97;;;;;;;11.80;100.00;100515.41;5072978;28;20177;-71
2021/10/15 03:22:07;;;;;;;1.83;1.40;;;;;;;11.79;100.00;100505.59;5091009;28;20206;-71
2021/10/15 03:24:33;;;;;;;1.90;1.57;;;;;;;11.77;100.00;100511.34;5090999;28;20256;-71
2021/10/15 03:26:58;;;;;;;4.57;1.30;;;;;;;11.75;100.00;100507.31;5072800;28;20508;-71
2021/10/15 03:29:24;;;;;;;2.03;1.93;;;;;;;11.75;100.00;100510.84;5091717;28;20530;-71
2021/10/15 03:31:49;;;;;;;2.83;1.90;;;;;;;11.77;100.00;100505.88;5076634;28;20307;-71
2021/10/15 03:34:14;;;;;;;2.53;2.33;;;;;;;11.79;100.00;100511.88;5076436;28;20213;-72
2021/10/15 03:36:40;;;;;;;4.83;2.87;;;;;;;11.76;100.00;100507.00;5094856;28;20174;-72
2021/10/15 03:39:05;;;;;;;1.53;1.43;;;;;;;11.77;100.00;100508.59;5094677;28;20181;-71
2021/10/15 03:41:30;;;;;;;1.93;1.30;;;;;;;11.77;100.00;100505.06;5094418;28;20204;-71
2021/10/15 03:43:56;;;;;;;1.83;1.40;;;;;;;11.77;100.00;100502.31;5094014;28;20257;-72
2021/10/15 03:46:21;;;;;;;2.83;1.40;;;;;;;11.77;100.00;100499.59;5076194;28;20507;-71
2021/10/15 03:48:46;;;;;;;1.73;1.30;;;;;;;11.77;100.00;100505.88;5094129;28;20177;-71
2021/10/15 03:51:12;;;;;;;3.00;2.60;;;;;;;11.80;100.00;100490.78;5094602;28;20514;-72
2021/10/15 03:53:37;;;;;;;1.97;1.20;;;;;;;11.78;99.65;100490.25;5094190;28;20693;-72
2021/10/15 03:56:03;;;;;;;0.57;0.57;;;;;;;11.78;98.66;100484.78;5075965;28;20246;-71
2021/10/15 03:58:28;;;;;;;6.83;3.50;;;;;;;11.77;99.30;100494.94;5094749;28;20179;-71
2021/10/15 04:00:53;;;;;;;1.17;1.07;;;;;;;11.77;99.45;100494.13;5094572;28;20197;-71
2021/10/15 04:03:20;;;;;;;1.80;1.70;;;;;;;11.77;99.16;100489.44;5076010;28;20176;-71
2021/10/15 04:05:46;;;;;;;1.97;1.83;;;;;;;11.74;100.00;100479.16;5093848;28;20192;-71
2021/10/15 04:08:11;;;;;;;4.03;2.03;;;;;;;11.72;99.24;100475.91;5094584;28;20169;-71
2021/10/15 04:10:36;;;;;;;1.43;1.33;;;;;;;11.73;99.33;100474.78;5075923;28;20292;-71
2021/10/15 04:13:02;;;;;;;2.47;2.17;;;;;;;11.72;99.43;100466.91;5093880;28;20258;-72
2021/10/15 04:15:27;;;;;;;3.13;2.57;;;;;;;11.69;99.36;100462.03;5093758;28;20519;-71
2021/10/15 04:17:52;;;;;;;2.20;1.90;;;;;;;11.68;99.40;100461.25;5093861;28;20182;-71
2021/10/15 04:20:18;;;;;;;2.30;2.10;;;;;;;11.67;99.98;100464.28;5075516;28;20174;-71
2021/10/15 04:22:43;;;;;;;1.33;1.20;;;;;;;11.66;99.41;100460.75;5075425;28;20233;-72
2021/10/15 04:25:08;;;;;;;5.67;2.50;;;;;;;11.67;99.14;100456.09;5093513;28;20182;-71
2021/10/15 04:27:34;;;;;;;1.53;1.43;;;;;;;11.69;98.38;100451.91;5075392;28;20201;-71
2021/10/15 04:29:59;;;;;;;1.17;1.07;;;;;;;11.68;98.42;100450.28;5093528;28;20231;-71
2021/10/15 04:32:25;;;;;;;1.73;1.60;;;;;;;11.66;98.12;100447.06;5093484;28;20185;-72
2021/10/15 04:34:50;;;;;;;3.20;1.90;;;;;;;11.69;98.07;100437.41;5093740;28;20188;-71
2021/10/15 04:37:15;;;;;;;2.80;2.10;;;;;;;11.67;98.43;100442.41;5075256;28;20174;-71
2021/10/15 04:39:41;;;;;;;3.13;2.83;;;;;;;11.68;98.06;100435.81;5093264;28;20541;-71
2021/10/15 04:42:07;;;;;;;1.73;1.53;;;;;;;11.67;97.19;100431.47;5074759;28;20634;-71
2021/10/15 04:44:32;;;;;;;1.63;1.53;;;;;;;11.63;97.44;100429.38;5074925;28;20277;-71
2021/10/15 04:46:57;;;;;;;0.20;0.20;;;;;;;11.65;96.91;100429.03;5093263;28;20170;-71
2021/10/15 04:49:23;;;;;;;3.00;1.60;;;;;;;11.63;96.71;100428.56;5093118;28;20194;-72
2021/10/15 04:51:48;;;;;;;1.47;1.30;;;;;;;11.63;95.81;100412.13;5075004;28;20174;-71
2021/10/15 04:54:14;;;;;;;3.40;2.20;;;;;;;11.62;96.63;100418.75;5074560;28;20166;-72
2021/10/15 04:56:39;;;;;;;1.60;1.27;;;;;;;11.62;96.08;100402.31;5074795;28;20241;-72
2021/10/15 04:59:04;;;;;;;2.80;2.00;;;;;;;11.61;95.75;100403.44;5074786;28;20185;-71
2021/10/15 05:01:30;;;;;;;1.57;1.33;;;;;;;11.63;95.32;100398.47;5092766;28;20657;-71
2021/10/15 05:03:55;;;;;;;2.27;1.93;;;;;;;11.62;95.35;100402.31;5092728;28;20540;-72
2021/10/15 05:06:20;;;;;;;2.40;2.20;;;;;;;11.60;94.71;100397.16;5074528;28;20174;-71
2021/10/15 05:09:12;;;;;;;2.27;2.07;;;;;;;11.57;94.87;100395.06;5093060;28;20328;-71
2021/10/15 05:11:43;;;;;;;1.30;1.13;;;;;;;11.54;94.32;100392.94;5074540;28;20166;-71
2021/10/15 05:14:08;;;;;;;1.73;1.63;;;;;;;11.52;94.55;100378.00;5092481;28;20762;-72
2021/10/15 05:16:34;;;;;;;5.20;2.30;;;;;;;11.55;94.17;100371.88;5092594;28;20197;-71
2021/10/15 05:18:59;;;;;;;1.60;1.50;;;;;;;11.54;93.59;100364.78;5092500;28;20653;-71
2021/10/15 05:21:25;;;;;;;2.20;1.93;;;;;;;11.49;94.55;100362.22;5074648;28;20288;-72
2021/10/15 05:23:50;;;;;;;2.53;1.07;;;;;;;11.48;93.67;100360.59;5092323;28;20201;-71
2021/10/15 05:26:15;;;;;;;1.63;1.53;;;;;;;11.49;93.37;100363.03;5092245;28;20170;-71
2021/10/15 05:28:41;;;;;;;1.30;1.13;;;;;;;11.47;93.69;100364.47;5074024;28;20173;-71
2021/10/15 05:31:06;;;;;;;1.07;1.07;;;;;;;11.50;92.93;100364.63;5092213;28;20261;-71
2021/10/15 05:33:31;;;;;;;1.80;0.60;;;;;;;11.46;93.74;100354.66;5092110;28;20181;-72
2021/10/15 05:35:57;;;;;;;2.13;1.43;;;;;;;11.49;92.26;100354.00;5073510;28;20225;-71
2021/10/15 05:38:22;;;;;;;1.53;0.70;;;;;;;11.48;93.32;100352.41;5073646;28;20188;-71
2021/10/15 05:40:48;;;;;;;0.83;0.83;;;;;;;11.46;92.67;100335.50;5091700;28;20247;-72
2021/10/15 05:43:13;;;;;;;1.83;1.07;;;;;;;11.45;92.30;100340.16;5091474;28;20625;-73
2021/10/15 05:45:38;;;;;;;5.70;2.20;;;;;;;11.45;93.07;100331.97;5091246;28;20363;-72
2021/10/15 05:48:04;;;;;;;0.90;0.90;;;;;;;11.46;93.39;100330.03;5071239;28;20220;-72
2021/10/15 05:50:31;;;;;;;3.10;1.50;;;;;;;11.45;93.64;100329.22;5088909;28;20193;-71
2021/10/15 05:53:04;;;;;;;4.37;1.30;;;;;;;11.47;93.60;100321.50;5091169;28;20600;-72
2021/10/15 05:55:37;;;;;;;1.40;1.30;;;;;;;11.46;93.45;100325.38;5091483;28;20279;-72
2021/10/15 06:01:00;;;;;;;0.37;0.37;;;;;;;11.50;93.47;100309.09;5025318;28;20591;-71
2021/10/15 06:03:25;;;;;;;0.80;0.47;;;;;;;11.50;94.20;100309.91;5091923;28;20178;-71
2021/10/15 06:16:16;;;;;;;1.50;1.40;;;;;;;11.52;94.77;100295.91;5091901;28;20178;-71
2021/10/15 06:18:50;;;;;;;6.40;1.97;;;;;;;11.50;95.47;100303.63;5091474;28;20189;-72
2021/10/15 06:21:16;;;;;;;7.30;0.80;;;;;;;11.50;95.24;100306.38;5091442;28;20326;-72
2021/10/15 06:23:41;;;;;;;1.83;1.60;;;;;;;11.48;95.70;100294.94;5091183;28;20174;-72
2021/10/15 06:26:06;;;;;;;1.23;1.00;;;;;;;11.47;96.59;100290.59;5073551;28;20178;-72
2021/10/15 06:28:32;;;;;;;1.43;1.23;;;;;;;11.48;95.93;100294.94;5073251;28;20178;-72
2021/10/15 06:30:57;;;;;;;2.60;1.77;;;;;;;11.48;96.02;100295.75;5073215;28;20173;-71
2021/10/15 06:33:22;;;;;;;2.90;2.27;;;;;;;11.49;96.33;100304.75;5091375;28;20232;-72
2021/10/15 06:35:48;;;;;;;2.30;1.50;;;;;;;11.49;95.96;100304.75;5072528;28;20178;-72
2021/10/15 06:38:13;;;;;;;2.87;1.47;;;;;;;11.48;95.55;100300.41;5089895;28;20507;-71
2021/10/15 06:40:39;;;;;;;3.53;1.57;;;;;;;11.49;95.76;100307.50;5089914;28;20174;-71
2021/10/15 06:43:07;;;;;;;1.30;1.20;;;;;;;11.48;96.31;100311.38;5089886;28;20182;-71
2021/10/15 06:45:33;;;;;;;0.20;0.17;;;;;;;11.45;96.33;100301.06;5089657;28;20659;-71
2021/10/15 06:47:59;;;;;;;0.77;0.77;;;;;;;11.40;96.85;100282.06;5071823;28;20273;-73
2021/10/15 06:50:24;;;;;;;9.87;1.43;;;;;;;11.42;96.84;100268.84;5089794;28;20162;-73
2021/10/15 06:52:49;;;;;;;1.63;1.53;;;;;;;11.40;97.63;100266.44;5089754;28;20181;-73
2021/10/15 06:55:22;;;;;;;1.47;1.03;;;;;;;11.46;96.73;100269.84;5072593;28;20177;-73
2021/10/15 06:57:49;;;;;;;1.07;0.97;;;;;;;11.49;96.61;100282.88;5089176;28;20178;-73
2021/10/15 07:00:16;;;;;;;1.87;1.40;;;;;;;11.51;97.16;100286.91;5088748;28;20235;-73
2021/10/15 07:02:42;;;;;;;0.77;0.77;;;;;;;11.51;97.11;100289.63;5072844;28;20201;-73
2021/10/15 07:05:09;;;;;;;1.43;1.33;;;;;;;11.54;96.82;100310.06;5075200;28;20242;-73
2021/10/15 07:07:35;;;;;;;1.20;1.10;;;;;;;11.59;96.67;100304.47;5077018;28;20185;-73
2021/10/15 07:10:00;;;;;;;1.43;1.27;;;;;;;11.60;97.35;100317.81;5076664;28;20624;-73
2021/10/15 07:12:34;;;;;;;2.80;1.80;;;;;;;11.65;96.83;100326.97;5076807;28;20583;-73
2021/10/15 07:15:00;;;;;;;6.60;2.60;;;;;;;11.67;97.45;100325.53;5077111;28;20205;-73
2021/10/15 07:17:26;;;;;;;11.07;2.73;;;;;;;11.69;97.32;100326.00;5095267;28;20652;-73
2021/10/15 07:19:51;;;;;;;2.17;1.97;;;;;;;11.69;97.83;100328.75;5094680;28;20180;-73
2021/10/15 07:22:16;;;;;;;2.80;2.60;;;;;;;11.72;97.95;100319.13;5094745;28;20285;-74
2021/10/15 07:24:42;;;;;;;1.23;1.23;;;;;;;11.72;97.71;100327.31;5076305;28;20661;-73
2021/10/15 07:27:07;;;;;;;0.77;0.77;;;;;;;11.71;97.54;100336.63;5076594;28;20174;-73
2021/10/15 07:29:32;;;;;;;3.00;1.73;;;;;;;11.69;97.69;100317.00;5094970;28;20647;-72
2021/10/15 07:31:58;;;;;;;1.00;0.97;;;;;;;11.69;98.54;100334.22;5076340;28;20605;-72
2021/10/15 07:34:23;;;;;;;3.00;2.53;;;;;;;11.67;97.83;100333.75;5076415;28;20170;-72
2021/10/15 07:36:49;;;;;;;1.43;1.10;;;;;;;11.64;98.10;100334.38;5094972;28;20190;-72
2021/10/15 07:39:14;;;;;;;1.50;1.40;;;;;;;11.59;98.49;100324.41;5076299;28;20174;-72
2021/10/15 07:41:43;;;;;;;1.50;1.40;;;;;;;11.58;99.18;100316.53;5075969;28;20826;-72
2021/10/15 07:44:10;;;;;;;1.57;1.47;;;;;;;11.54;99.18;100321.81;5075847;28;20205;-72
2021/10/15 07:46:35;;;;;;;1.93;1.83;;;;;;;11.54;100.00;100316.34;5094346;28;20166;-72
2021/10/15 07:49:01;;;;;;;1.60;1.23;;;;;;;11.54;100.00;100310.06;5075973;28;20174;-72
2021/10/15 07:51:26;;;;;;;6.30;1.63;;;;;;;11.55;100.00;100312.47;5076044;28;20667;-72
2021/10/15 07:53:52;;;;;;;2.30;2.10;;;;;;;11.56;100.00;100308.63;5076155;28;20181;-72
2021/10/15 07:56:17;;;;;;;3.13;1.93;;;;;;;11.60;100.00;100303.31;5075925;28;20182;-72
2021/10/15 07:58:42;;;;;;;2.40;2.20;;;;;;;11.57;100.00;100293.84;5075988;28;20189;-72
2021/10/15 08:01:08;;;;;;;2.17;1.93;;;;;;;11.62;100.00;100288.19;5073701;28;20205;-72
2021/10/15 08:03:33;;;;;;;1.80;1.20;;;;;;;11.66;100.00;100269.19;5091557;28;20261;-72
2021/10/15 08:05:59;;;;;;;7.10;2.23;;;;;;;11.70;100.00;100266.59;5083648;28;20182;-72
2021/10/15 08:08:24;;;;;;;0.63;0.63;;;;;;;11.74;100.00;100270.31;5094031;28;20534;-72
2021/10/15 08:10:49;;;;;;;2.93;1.60;;;;;;;11.75;100.00;100277.41;5093356;28;20192;-72
2021/10/15 08:13:15;;;;;;;0.50;0.50;;;;;;;11.79;100.00;100276.47;5093334;28;20182;-72
2021/10/15 08:15:40;;;;;;;1.20;1.10;;;;;;;11.83;100.00;100268.41;5092919;28;20349;-72
2021/10/15 08:18:06;;;;;;;3.67;2.87;;;;;;;11.86;100.00;100268.56;5093342;28;20659;-72
2021/10/15 08:20:31;;;;;;;2.13;1.30;;;;;;;11.94;99.38;100274.34;5075076;28;20189;-72
2021/10/15 08:22:56;;;;;;;4.20;1.40;;;;;;;11.96;99.68;100272.88;5075214;28;20203;-72
2021/10/15 08:25:23;;;;;;;1.37;1.27;;;;;;;12.01;99.33;100274.69;5092825;28;20174;-72
2021/10/15 08:27:48;;;;;;;1.93;1.23;;;;;;;12.00;99.12;100278.50;5074894;28;20189;-72
2021/10/15 08:30:14;;;;;;;1.60;1.40;;;;;;;12.00;99.95;100279.31;5074738;28;20264;-72
2021/10/15 08:32:39;;;;;;;13.67;1.63;;;;;;;11.99;100.00;100274.97;5074917;28;20174;-71
2021/10/15 08:35:05;;;;;;;1.47;1.20;;;;;;;11.98;99.81;100299.94;5074105;28;20182;-72
2021/10/15 08:37:31;;;;;;;1.33;1.17;;;;;;;11.97;99.29;100301.06;5074982;28;20177;-72
2021/10/15 08:39:57;;;;;;;1.30;1.20;;;;;;;11.95;98.85;100320.56;5074599;28;20178;-72
2021/10/15 08:42:23;;;;;;;1.23;1.20;;;;;;;11.94;100.00;100318.97;5092489;28;20346;-72
2021/10/15 08:44:48;;;;;;;1.00;1.00;;;;;;;11.89;100.00;100327.34;5092536;28;20264;-72
2021/10/15 08:47:15;;;;;;;2.80;2.13;;;;;;;11.86;100.00;100339.75;5092647;28;20196;-72
2021/10/15 08:49:43;;;;;;;1.63;1.53;;;;;;;11.82;100.00;100348.91;5074497;28;20184;-72
2021/10/15 08:52:10;;;;;;;1.50;1.40;;;;;;;11.79;100.00;100344.09;5092555;28;20170;-72
2021/10/15 08:54:38;;;;;;;2.17;1.97;;;;;;;11.72;100.00;100351.94;5073993;28;20177;-72
2021/10/15 08:57:04;;;;;;;2.20;2.00;;;;;;;11.55;100.00;100352.72;5092063;28;20172;-73
2021/10/15 08:59:49;;;;;;;3.00;2.70;;;;;;;11.29;100.00;100363.63;5089022;28;20197;-73
2021/10/15 09:02:21;;;;;;;2.33;2.13;;;;;;;11.11;100.00;100362.75;5089116;28;20201;-73
2021/10/15 09:04:51;;;;;;;6.40;3.03;;;;;;;10.95;100.00;100369.78;5091446;28;20269;-73
2021/10/15 09:07:22;;;;;;;3.67;3.30;;;;;;;10.82;100.00;100376.94;5054309;28;20676;-73
2021/10/15 09:10:06;;;;;;;2.37;2.20;;;;;;;10.75;100.00;100378.53;5067386;28;20630;-73
2021/10/15 09:12:44;;;;;;;13.47;3.93;;;;;;;10.67;100.00;100374.63;5080989;28;20304;-73
2021/10/15 09:15:09;;;;;;;8.30;4.93;;;;;;;10.60;100.00;100375.09;5087765;28;20162;-72
2021/10/15 09:17:47;;;;;;;2.17;2.07;;;;;;;10.56;100.00;100395.13;5091866;28;20181;-73
2021/10/15 09:20:25;;;;;;;3.67;3.37;;;;;;;10.52;100.00;100378.56;5090789;28;20264;-73
2021/10/15 09:22:50;;;;;;;3.73;3.43;;;;;;;10.52;100.00;100396.88;5081256;28;20209;-73
2021/10/15 09:25:16;;;;;;;2.90;2.70;;;;;;;10.49;100.00;100401.03;5091627;28;20659;-73
2021/10/15 09:27:44;;;;;;;5.20;3.10;;;;;;;10.47;100.00;100406.00;5089697;28;20256;-74
2021/10/15 09:30:24;;;;;;;4.27;3.87;;;;;;;10.47;100.00;100429.78;5091028;28;20599;-74
2021/10/15 09:32:52;;;;;;;6.53;3.63;;;;;;;10.46;100.00;100471.88;5092189;28;20170;-76
2021/10/15 09:35:23;;;;;;;6.93;3.83;;;;;;;10.42;100.00;100471.69;5090703;28;20174;-73
2021/10/15 09:37:59;;;;;;;2.70;2.30;;;;;;;10.17;100.00;100481.25;5066058;28;20554;-74
2021/10/15 09:40:27;;;;;;;2.47;1.40;;;;;;;10.07;100.00;100476.00;5086279;28;20273;-74
2021/10/15 09:42:56;;;;;;;0.60;0.60;;;;;;;10.05;100.00;100486.44;5075140;28;20676;-74
2021/10/15 09:45:24;;;;;;;0.70;0.70;;;;;;;10.01;100.00;100474.53;5091619;28;20651;-74
2021/10/15 09:47:59;;;;;;;0.63;0.63;;;;;;;10.04;100.00;100474.72;5073501;28;20169;-75
2021/10/15 09:50:30;;;;;;;0.90;0.90;;;;;;;10.06;100.00;100491.59;5073635;28;20276;-74
2021/10/15 09:52:58;;;;;;;0.40;0.40;;;;;;;10.05;100.00;100487.25;5067724;28;20183;-76
2021/10/15 09:55:31;;;;;;;0.37;0.37;;;;;;;10.05;100.00;100491.88;5072801;28;20205;-75
2021/10/15 09:58:19;;;;;;;0.30;0.30;;;;;;;10.07;100.00;100509.56;5091314;28;20919;-75
2021/10/15 10:00:46;;;;;;;0.40;0.40;;;;;;;10.08;100.00;100513.13;5091595;28;20630;-74
2021/10/15 10:03:13;;;;;;;0.60;0.60;;;;;;;10.07;100.00;100519.69;5073119;28;20176;-74
2021/10/15 10:05:38;;;;;;;0.20;0.20;;;;;;;10.11;100.00;100529.69;5091453;28;20224;-74
2021/10/15 10:08:05;;;;;;;1.07;0.20;;;;;;;10.14;100.00;100531.81;5073224;28;20656;-73
2021/10/15 10:10:34;;;;;;;0.73;0.30;;;;;;;10.13;100.00;100526.66;5091701;28;20269;-73
2021/10/15 10:13:00;;;;;;;0.20;0.20;;;;;;;10.14;100.00;100539.22;5091410;28;20170;-74
2021/10/15 10:15:28;;;;;;;0.30;0.30;;;;;;;10.09;100.00;100537.38;5091329;28;20659;-74
2021/10/15 10:18:18;;;;;;;0.30;0.30;;;;;;;10.13;100.00;100540.31;5073022;28;20201;-73
2021/10/15 10:20:49;;;;;;;0.20;0.20;;;;;;;10.11;100.00;100539.78;5091388;28;20388;-73
2021/10/15 10:23:27;;;;;;;1.23;0.40;;;;;;;10.09;100.00;100537.38;5073155;28;20174;-74
2021/10/15 10:26:00;;;;;;;0.37;0.37;;;;;;;10.11;100.00;100542.53;5072970;28;20177;-74
2021/10/15 10:28:27;;;;;;;0.10;0.10;;;;;;;10.11;100.00;100543.34;5071222;28;20196;-74
2021/10/15 10:30:56;;;;;;;0.50;0.47;;;;;;;10.14;100.00;100552.84;5072017;28;20186;-74
2021/10/15 10:33:23;;;;;;;0.63;0.50;;;;;;;10.13;100.00;100568.44;5072867;28;20178;-74
2021/10/15 10:35:51;;;;;;;0.60;0.60;;;;;;;10.14;100.00;100563.78;5090912;28;20212;-74
2021/10/15 10:38:19;;;;;;;0.77;0.47;;;;;;;10.11;100.00;100556.16;5091006;28;20180;-73
2021/10/15 10:41:00;;;;;;;1.33;0.50;;;;;;;10.06;100.00;100565.28;5072955;28;20181;-74
2021/10/15 10:43:51;;;;;;;0.23;0.23;;;;;;;10.02;100.00;100583.41;5090914;28;20169;-73
2021/10/15 10:46:18;;;;;;;0.10;0.10;;;;;;;9.94;100.00;100581.34;5090488;28;20227;-76
2021/10/15 10:48:46;;;;;;;0.17;0.13;;;;;;;9.89;100.00;100573.28;5072678;28;20187;-74
2021/10/15 10:51:24;;;;;;;0.27;0.27;;;;;;;9.87;100.00;100574.72;5072790;28;20645;-74
2021/10/15 10:53:59;;;;;;;0.77;0.50;;;;;;;9.81;100.00;100571.25;5072791;28;20543;-74
2021/10/15 10:56:41;;;;;;;0.20;0.20;;;;;;;9.78;100.00;100585.50;5072788;28;20176;-73
2021/10/15 11:01:49;;;;;;;0.40;0.30;;;;;;;9.69;100.00;100585.41;5083966;28;20213;-73
2021/10/15 11:04:35;;;;;;;0.37;0.23;;;;;;;9.74;100.00;100588.03;5077856;28;20237;-74
2021/10/15 11:07:04;;;;;;;0.10;0.10;;;;;;;9.73;100.00;100588.34;5058502;28;20201;-73
2021/10/15 11:09:35;;;;;;;0.17;0.10;;;;;;;9.76;100.00;100599.44;5072620;28;20531;-73
2021/10/15 11:12:01;;;;;;;0.27;0.27;;;;;;;9.78;100.00;100608.13;5090918;28;20181;-73
2021/10/15 11:14:49;;;;;;;0.20;0.10;;;;;;;9.82;100.00;100616.53;5072161;28;20170;-74
2021/10/15 11:17:15;;;;;;;0.43;0.30;;;;;;;9.85;100.00;100621.41;5072831;28;20202;-73
2021/10/15 11:19:41;;;;;;;0.03;0.03;;;;;;;9.90;100.00;100631.41;5072591;28;20176;-73
2021/10/15 11:22:06;;;;;;;0.47;0.10;;;;;;;9.94;100.00;100635.94;5072142;28;20206;-78
2021/10/15 11:24:32;;;;;;;0.10;0.10;;;;;;;10.02;100.00;100643.44;5090665;28;20184;-73
2021/10/15 11:26:57;;;;;;;0.10;0.10;;;;;;;10.05;100.00;100639.28;5072512;28;20455;-73
2021/10/15 11:29:23;;;;;;;0.73;0.40;;;;;;;10.03;100.00;100638.78;5090182;28;20181;-72
2021/10/15 11:31:56;;;;;;;0.20;0.20;;;;;;;10.02;100.00;100645.38;5072047;28;20170;-72
2021/10/15 11:34:23;;;;;;;0.00;0.00;;;;;;;9.98;100.00;100641.59;5071847;28;20182;-73
2021/10/15 11:37:02;;;;;;;0.10;0.03;;;;;;;9.90;100.00;100645.06;5090088;28;20174;-73